Aviation Digital Data Service (ADDS)

Output produced by METARs form (1801 UTC 24 October 2014)
found at http://aviationweather.gov/adds/metars/
 
KCRG 241733Z 2418/2518 04005KT P6SM FEW250